sensor_id;sensor_type;location;lat;lon;timestamp;pressure;altitude;pressure_sealevel;temperature;humidity
23589;BME280;11972;48.078;11.876;2023-03-23T00:00:22;94916.44;;;6.44;100.00
23589;BME280;11972;48.078;11.876;2023-03-23T00:04:22;94920.88;;;6.43;100.00
23589;BME280;11972;48.078;11.876;2023-03-23T00:08:25;94916.63;;;6.42;100.00
23589;BME280;11972;48.078;11.876;2023-03-23T00:12:28;94925.09;;;6.44;100.00
23589;BME280;11972;48.078;11.876;2023-03-23T00:16:34;94928.69;;;6.52;100.00
23589;BME280;11972;48.078;11.876;2023-03-23T00:20:40;94925.72;;;6.55;100.00
23589;BME280;11972;48.078;11.876;2023-03-23T00:24:41;94928.19;;;6.56;100.00
23589;BME280;11972;48.078;11.876;2023-03-23T00:28:41;94922.75;;;6.58;100.00
23589;BME280;11972;48.078;11.876;2023-03-23T00:32:42;94918.78;;;6.62;100.00
23589;BME280;11972;48.078;11.876;2023-03-23T00:36:42;94911.25;;;6.67;100.00
23589;BME280;11972;48.078;11.876;2023-03-23T00:40:42;94914.50;;;6.69;100.00
23589;BME280;11972;48.078;11.876;2023-03-23T00:44:43;94914.16;;;6.72;100.00
23589;BME280;11972;48.078;11.876;2023-03-23T00:53:38;94906.91;;;6.74;100.00
23589;BME280;11972;48.078;11.876;2023-03-23T00:57:39;94914.78;;;6.74;100.00
23589;BME280;11972;48.078;11.876;2023-03-23T01:01:40;94906.91;;;6.74;100.00
23589;BME280;11972;48.078;11.876;2023-03-23T01:05:40;94910.19;;;6.76;100.00
23589;BME280;11972;48.078;11.876;2023-03-23T01:09:40;94905.41;;;6.80;100.00
23589;BME280;11972;48.078;11.876;2023-03-23T01:13:44;94898.97;;;6.82;100.00
23589;BME280;11972;48.078;11.876;2023-03-23T01:17:45;94902.09;;;6.86;100.00
23589;BME280;11972;48.078;11.876;2023-03-23T01:21:46;94899.13;;;6.89;100.00
23589;BME280;11972;48.078;11.876;2023-03-23T01:25:46;94890.09;;;6.91;100.00
23589;BME280;11972;48.078;11.876;2023-03-23T01:29:46;94888.75;;;6.95;100.00
23589;BME280;11972;48.078;11.876;2023-03-23T01:33:48;94881.50;;;6.97;100.00
23589;BME280;11972;48.078;11.876;2023-03-23T01:37:50;94882.16;;;7.00;100.00
23589;BME280;11972;48.078;11.876;2023-03-23T01:41:51;94882.16;;;7.00;100.00
23589;BME280;11972;48.078;11.876;2023-03-23T01:45:51;94886.41;;;7.01;100.00
23589;BME280;11972;48.078;11.876;2023-03-23T01:49:52;94878.69;;;6.99;100.00
23589;BME280;11972;48.078;11.876;2023-03-23T01:53:57;94879.53;;;7.00;100.00
23589;BME280;11972;48.078;11.876;2023-03-23T01:57:59;94875.91;;;7.01;100.00
23589;BME280;11972;48.078;11.876;2023-03-23T02:02:00;94877.53;;;7.02;100.00
23589;BME280;11972;48.078;11.876;2023-03-23T02:06:01;94877.88;;;6.99;100.00
23589;BME280;11972;48.078;11.876;2023-03-23T02:10:05;94883.50;;;6.95;100.00
23589;BME280;11972;48.078;11.876;2023-03-23T02:14:05;94887.09;;;6.94;100.00
23589;BME280;11972;48.078;11.876;2023-03-23T02:18:21;94885.13;;;6.96;100.00
23589;BME280;11972;48.078;11.876;2023-03-23T02:22:33;94888.09;;;6.93;100.00
23589;BME280;11972;48.078;11.876;2023-03-23T02:27:00;94882.84;;;6.93;100.00
23589;BME280;11972;48.078;11.876;2023-03-23T02:31:29;94885.81;;;6.90;100.00
23589;BME280;11972;48.078;11.876;2023-03-23T02:35:42;94872.06;;;6.88;100.00
23589;BME280;11972;48.078;11.876;2023-03-23T02:39:47;94872.06;;;6.88;100.00
23589;BME280;11972;48.078;11.876;2023-03-23T02:43:51;94869.91;;;6.92;100.00
23589;BME280;11972;48.078;11.876;2023-03-23T02:47:53;94854.97;;;6.92;100.00
23589;BME280;11972;48.078;11.876;2023-03-23T02:51:56;94863.31;;;6.96;100.00
23589;BME280;11972;48.078;11.876;2023-03-23T02:55:59;94866.91;;;6.95;100.00
23589;BME280;11972;48.078;11.876;2023-03-23T03:00:01;94870.06;;;6.90;100.00
23589;BME280;11972;48.078;11.876;2023-03-23T03:04:13;94872.06;;;6.88;100.00
23589;BME280;11972;48.078;11.876;2023-03-23T03:16:46;94876.81;;;6.85;100.00
23589;BME280;11972;48.078;11.876;2023-03-23T03:20:55;94877.88;;;6.76;100.00
23589;BME280;11972;48.078;11.876;2023-03-23T03:24:59;94876.47;;;6.65;100.00
23589;BME280;11972;48.078;11.876;2023-03-23T03:29:01;94876.69;;;6.55;100.00
23589;BME280;11972;48.078;11.876;2023-03-23T03:33:01;94883.91;;;6.53;100.00
23589;BME280;11972;48.078;11.876;2023-03-23T03:37:04;94871.59;;;6.54;100.00
23589;BME280;11972;48.078;11.876;2023-03-23T03:41:05;94871.59;;;6.54;100.00
23589;BME280;11972;48.078;11.876;2023-03-23T03:45:07;94874.13;;;6.47;100.00
23589;BME280;11972;48.078;11.876;2023-03-23T03:49:10;94880.22;;;6.39;100.00
23589;BME280;11972;48.078;11.876;2023-03-23T03:53:12;94873.88;;;6.34;100.00
23589;BME280;11972;48.078;11.876;2023-03-23T03:57:13;94875.34;;;6.28;100.00
23589;BME280;11972;48.078;11.876;2023-03-23T04:01:14;94878.19;;;6.18;100.00
23589;BME280;11972;48.078;11.876;2023-03-23T04:05:16;94885.91;;;6.12;100.00
23589;BME280;11972;48.078;11.876;2023-03-23T04:09:16;94890.34;;;6.11;100.00
23589;BME280;11972;48.078;11.876;2023-03-23T04:13:17;94892.44;;;6.16;100.00
23589;BME280;11972;48.078;11.876;2023-03-23T04:17:17;94892.13;;;6.19;100.00
23589;BME280;11972;48.078;11.876;2023-03-23T04:21:20;94901.47;;;6.21;100.00
23589;BME280;11972;48.078;11.876;2023-03-23T04:25:20;94900.63;;;6.21;100.00
23589;BME280;11972;48.078;11.876;2023-03-23T04:29:21;94902.28;;;6.22;100.00
23589;BME280;11972;48.078;11.876;2023-03-23T04:33:23;94902.44;;;6.20;100.00
23589;BME280;11972;48.078;11.876;2023-03-23T04:37:26;94891.63;;;6.15;100.00
23589;BME280;11972;48.078;11.876;2023-03-23T04:41:28;94906.25;;;6.10;100.00
23589;BME280;11972;48.078;11.876;2023-03-23T04:45:29;94911.16;;;6.05;100.00
23589;BME280;11972;48.078;11.876;2023-03-23T04:49:29;94916.78;;;6.02;100.00
23589;BME280;11972;48.078;11.876;2023-03-23T04:53:31;94920.03;;;6.04;100.00
23589;BME280;11972;48.078;11.876;2023-03-23T04:57:31;94921.81;;;6.11;100.00
23589;BME280;11972;48.078;11.876;2023-03-23T05:01:33;94912.09;;;6.20;100.00
23589;BME280;11972;48.078;11.876;2023-03-23T05:05:36;94910.44;;;6.27;100.00
23589;BME280;11972;48.078;11.876;2023-03-23T05:09:37;94907.59;;;6.37;100.00
23589;BME280;11972;48.078;11.876;2023-03-23T05:13:37;94913.28;;;6.49;100.00
23589;BME280;11972;48.078;11.876;2023-03-23T05:17:39;94924.56;;;6.57;100.00
23589;BME280;11972;48.078;11.876;2023-03-23T05:21:40;94910.91;;;6.62;100.00
23589;BME280;11972;48.078;11.876;2023-03-23T05:25:41;94916.63;;;6.65;100.00
23589;BME280;11972;48.078;11.876;2023-03-23T05:29:42;94929.91;;;6.72;100.00
23589;BME280;11972;48.078;11.876;2023-03-23T05:33:42;94937.03;;;6.86;100.00
23589;BME280;11972;48.078;11.876;2023-03-23T05:37:43;94933.66;;;7.01;100.00
23589;BME280;11972;48.078;11.876;2023-03-23T05:41:43;94938.81;;;7.17;100.00
23589;BME280;11972;48.078;11.876;2023-03-23T05:45:44;94937.03;;;7.32;100.00
23589;BME280;11972;48.078;11.876;2023-03-23T05:49:45;94937.91;;;7.47;100.00
23589;BME280;11972;48.078;11.876;2023-03-23T05:53:46;94937.47;;;7.59;100.00
23589;BME280;11972;48.078;11.876;2023-03-23T05:57:47;94944.56;;;7.73;100.00
23589;BME280;11972;48.078;11.876;2023-03-23T06:01:47;94953.66;;;7.85;100.00
23589;BME280;11972;48.078;11.876;2023-03-23T06:05:48;94949.44;;;7.99;100.00
23589;BME280;11972;48.078;11.876;2023-03-23T06:09:48;94953.25;;;8.11;100.00
23589;BME280;11972;48.078;11.876;2023-03-23T06:13:49;94953.78;;;8.21;100.00
23589;BME280;11972;48.078;11.876;2023-03-23T06:17:50;94932.09;;;8.34;100.00
23589;BME280;11972;48.078;11.876;2023-03-23T06:21:56;94918.88;;;8.42;100.00
23589;BME280;11972;48.078;11.876;2023-03-23T06:25:59;94905.81;;;8.49;100.00
23589;BME280;11972;48.078;11.876;2023-03-23T06:30:00;94894.81;;;8.60;100.00
23589;BME280;11972;48.078;11.876;2023-03-23T06:34:01;94894.75;;;8.75;100.00
23589;BME280;11972;48.078;11.876;2023-03-23T06:38:02;94895.53;;;8.90;100.00
23589;BME280;11972;48.078;11.876;2023-03-23T06:42:03;94897.91;;;9.07;100.00
23589;BME280;11972;48.078;11.876;2023-03-23T06:46:03;94908.81;;;9.25;100.00
23589;BME280;11972;48.078;11.876;2023-03-23T06:50:04;94918.34;;;9.48;100.00
23589;BME280;11972;48.078;11.876;2023-03-23T06:54:05;94927.28;;;9.75;100.00
23589;BME280;11972;48.078;11.876;2023-03-23T06:58:05;94923.22;;;10.00;100.00
23589;BME280;11972;48.078;11.876;2023-03-23T07:02:08;94927.88;;;10.26;100.00
23589;BME280;11972;48.078;11.876;2023-03-23T07:06:10;94919.84;;;10.48;100.00
23589;BME280;11972;48.078;11.876;2023-03-23T07:10:10;94906.53;;;10.62;100.00
23589;BME280;11972;48.078;11.876;2023-03-23T07:14:11;94903.72;;;10.77;100.00
23589;BME280;11972;48.078;11.876;2023-03-23T07:18:11;94909.44;;;10.94;100.00
23589;BME280;11972;48.078;11.876;2023-03-23T07:22:12;94907.91;;;11.20;100.00
23589;BME280;11972;48.078;11.876;2023-03-23T07:26:12;94895.94;;;11.50;100.00
23589;BME280;11972;48.078;11.876;2023-03-23T07:30:14;94885.13;;;11.78;100.00
23589;BME280;11972;48.078;11.876;2023-03-23T07:34:14;94882.06;;;12.08;100.00
23589;BME280;11972;48.078;11.876;2023-03-23T07:38:15;94886.69;;;12.26;100.00
23589;BME280;11972;48.078;11.876;2023-03-23T07:42:15;94877.47;;;12.48;100.00
23589;BME280;11972;48.078;11.876;2023-03-23T07:46:16;94873.72;;;12.69;100.00
23589;BME280;11972;48.078;11.876;2023-03-23T07:50:16;94886.59;;;13.04;100.00
23589;BME280;11972;48.078;11.876;2023-03-23T07:54:17;94892.34;;;13.32;100.00
23589;BME280;11972;48.078;11.876;2023-03-23T07:58:18;94884.06;;;13.54;100.00
23589;BME280;11972;48.078;11.876;2023-03-23T08:02:20;94887.69;;;13.84;100.00
23589;BME280;11972;48.078;11.876;2023-03-23T08:06:21;94888.03;;;14.13;100.00
23589;BME280;11972;48.078;11.876;2023-03-23T08:10:22;94879.63;;;14.34;100.00
23589;BME280;11972;48.078;11.876;2023-03-23T08:14:23;94879.94;;;14.63;100.00
23589;BME280;11972;48.078;11.876;2023-03-23T08:18:27;94876.13;;;14.77;100.00
23589;BME280;11972;48.078;11.876;2023-03-23T08:22:28;94882.63;;;14.93;100.00
23589;BME280;11972;48.078;11.876;2023-03-23T08:26:29;94881.59;;;15.24;100.00
23589;BME280;11972;48.078;11.876;2023-03-23T08:30:30;94877.13;;;15.78;100.00
23589;BME280;11972;48.078;11.876;2023-03-23T08:34:32;94884.88;;;16.38;100.00
23589;BME280;11972;48.078;11.876;2023-03-23T08:38:33;94880.44;;;16.79;100.00
23589;BME280;11972;48.078;11.876;2023-03-23T08:42:33;94882.63;;;17.11;100.00
23589;BME280;11972;48.078;11.876;2023-03-23T08:46:33;94878.03;;;17.52;100.00
23589;BME280;11972;48.078;11.876;2023-03-23T08:50:34;94882.34;;;17.53;100.00
23589;BME280;11972;48.078;11.876;2023-03-23T08:54:35;94886.72;;;17.30;100.00
23589;BME280;11972;48.078;11.876;2023-03-23T08:58:37;94892.66;;;17.32;100.00
23589;BME280;11972;48.078;11.876;2023-03-23T09:02:38;94886.28;;;17.50;100.00
23589;BME280;11972;48.078;11.876;2023-03-23T09:06:38;94887.00;;;17.74;100.00
23589;BME280;11972;48.078;11.876;2023-03-23T09:10:39;94888.47;;;17.82;100.00
23589;BME280;11972;48.078;11.876;2023-03-23T09:14:39;94895.75;;;17.87;100.00
23589;BME280;11972;48.078;11.876;2023-03-23T09:18:39;94894.75;;;17.76;100.00
23589;BME280;11972;48.078;11.876;2023-03-23T09:22:45;94903.25;;;17.90;100.00
23589;BME280;11972;48.078;11.876;2023-03-23T09:26:46;94907.88;;;18.11;100.00
23589;BME280;11972;48.078;11.876;2023-03-23T09:30:47;94904.78;;;18.36;100.00
23589;BME280;11972;48.078;11.876;2023-03-23T09:34:48;94906.72;;;18.41;100.00
23589;BME280;11972;48.078;11.876;2023-03-23T09:38:48;94905.72;;;18.47;100.00
23589;BME280;11972;48.078;11.876;2023-03-23T09:47:24;94911.69;;;18.71;100.00
23589;BME280;11972;48.078;11.876;2023-03-23T09:55:41;94936.75;;;17.52;100.00
23589;BME280;11972;48.078;11.876;2023-03-23T10:00:03;94943.63;;;17.76;100.00
23589;BME280;11972;48.078;11.876;2023-03-23T10:04:31;94924.53;;;18.18;100.00
23589;BME280;11972;48.078;11.876;2023-03-23T10:08:33;94928.44;;;18.83;100.00
23589;BME280;11972;48.078;11.876;2023-03-23T10:12:42;94917.22;;;19.08;100.00
23589;BME280;11972;48.078;11.876;2023-03-23T10:20:59;94923.00;;;19.44;100.00
23589;BME280;11972;48.078;11.876;2023-03-23T10:33:37;94935.38;;;20.04;100.00
23589;BME280;11972;48.078;11.876;2023-03-23T10:37:43;94927.53;;;20.29;100.00
23589;BME280;11972;48.078;11.876;2023-03-23T10:41:44;94938.41;;;20.13;97.71
23589;BME280;11972;48.078;11.876;2023-03-23T10:45:52;94939.84;;;20.25;97.03
23589;BME280;11972;48.078;11.876;2023-03-23T10:50:00;94939.88;;;20.30;98.06
23589;BME280;11972;48.078;11.876;2023-03-23T10:54:03;94940.44;;;20.00;96.60
23589;BME280;11972;48.078;11.876;2023-03-23T10:58:08;94930.84;;;19.77;98.12
23589;BME280;11972;48.078;11.876;2023-03-23T11:02:15;94927.56;;;19.70;96.48
23589;BME280;11972;48.078;11.876;2023-03-23T11:06:23;94932.13;;;19.48;95.41
23589;BME280;11972;48.078;11.876;2023-03-23T11:10:35;94935.25;;;19.40;95.63
23589;BME280;11972;48.078;11.876;2023-03-23T11:14:36;94940.66;;;19.45;97.50
23589;BME280;11972;48.078;11.876;2023-03-23T11:18:41;94931.56;;;19.46;97.09
23589;BME280;11972;48.078;11.876;2023-03-23T11:22:45;94928.25;;;19.61;99.65
23589;BME280;11972;48.078;11.876;2023-03-23T11:26:46;94924.56;;;19.94;97.67
23589;BME280;11972;48.078;11.876;2023-03-23T11:30:48;94931.13;;;20.45;96.18
23589;BME280;11972;48.078;11.876;2023-03-23T11:34:49;94942.53;;;20.63;92.29
23589;BME280;11972;48.078;11.876;2023-03-23T11:38:54;94935.03;;;20.65;90.70
23589;BME280;11972;48.078;11.876;2023-03-23T11:51:12;94910.84;;;21.12;82.90
23589;BME280;11972;48.078;11.876;2023-03-23T11:55:19;94907.13;;;21.28;82.22
23589;BME280;11972;48.078;11.876;2023-03-23T11:59:29;94910.47;;;21.61;78.48
23589;BME280;11972;48.078;11.876;2023-03-23T12:08:23;94913.16;;;21.76;79.87
23589;BME280;11972;48.078;11.876;2023-03-23T12:12:43;94908.03;;;21.54;82.56
23589;BME280;11972;48.078;11.876;2023-03-23T12:21:21;94902.13;;;20.85;83.24
23589;BME280;11972;48.078;11.876;2023-03-23T12:37:52;94887.25;;;21.29;80.51
23589;BME280;11972;48.078;11.876;2023-03-23T12:50:42;94884.19;;;20.90;77.23
23589;BME280;11972;48.078;11.876;2023-03-23T12:58:59;94881.13;;;20.66;74.31
23589;BME280;11972;48.078;11.876;2023-03-23T13:03:30;94869.41;;;20.88;75.87
23589;BME280;11972;48.078;11.876;2023-03-23T13:07:38;94870.94;;;21.36;75.32
23589;BME280;11972;48.078;11.876;2023-03-23T13:11:43;94863.72;;;21.83;73.40
23589;BME280;11972;48.078;11.876;2023-03-23T13:24:23;94862.38;;;21.95;71.06
23589;BME280;11972;48.078;11.876;2023-03-23T13:28:28;94859.72;;;21.85;70.15
23589;BME280;11972;48.078;11.876;2023-03-23T13:32:37;94873.91;;;21.55;70.65
23589;BME280;11972;48.078;11.876;2023-03-23T13:36:41;94866.66;;;20.72;64.81
23589;BME280;11972;48.078;11.876;2023-03-23T13:40:43;94865.16;;;20.07;63.80
23589;BME280;11972;48.078;11.876;2023-03-23T13:45:06;94869.72;;;19.74;60.33
23589;BME280;11972;48.078;11.876;2023-03-23T13:49:19;94846.22;;;19.81;64.45
23589;BME280;11972;48.078;11.876;2023-03-23T13:57:36;94869.81;;;19.85;63.21
23589;BME280;11972;48.078;11.876;2023-03-23T14:01:38;94853.22;;;19.55;62.60
23589;BME280;11972;48.078;11.876;2023-03-23T14:05:43;94846.44;;;19.48;65.98
23589;BME280;11972;48.078;11.876;2023-03-23T14:09:44;94845.84;;;19.68;69.07
23589;BME280;11972;48.078;11.876;2023-03-23T14:14:12;94833.84;;;20.13;67.47
23589;BME280;11972;48.078;11.876;2023-03-23T14:18:15;94836.41;;;20.40;66.93
23589;BME280;11972;48.078;11.876;2023-03-23T14:22:28;94842.25;;;20.31;67.96
23589;BME280;11972;48.078;11.876;2023-03-23T14:26:34;94843.97;;;19.68;68.03
23589;BME280;11972;48.078;11.876;2023-03-23T14:30:36;94859.22;;;19.41;70.46
23589;BME280;11972;48.078;11.876;2023-03-23T14:34:36;94861.91;;;19.41;72.78
23589;BME280;11972;48.078;11.876;2023-03-23T14:38:37;94856.13;;;19.54;76.10
23589;BME280;11972;48.078;11.876;2023-03-23T14:42:39;94880.69;;;19.46;76.38
23589;BME280;11972;48.078;11.876;2023-03-23T14:46:41;94873.19;;;19.21;79.22
23589;BME280;11972;48.078;11.876;2023-03-23T14:50:52;94868.66;;;19.21;83.15
23589;BME280;11972;48.078;11.876;2023-03-23T14:54:53;94867.63;;;19.00;85.52
23589;BME280;11972;48.078;11.876;2023-03-23T14:58:53;94869.44;;;18.95;87.02
23589;BME280;11972;48.078;11.876;2023-03-23T15:02:56;94862.97;;;18.91;88.82
23589;BME280;11972;48.078;11.876;2023-03-23T15:07:03;94867.53;;;18.90;91.02
23589;BME280;11972;48.078;11.876;2023-03-23T15:15:20;94870.03;;;18.58;90.75
23589;BME280;11972;48.078;11.876;2023-03-23T15:19:41;94862.03;;;18.19;90.85
23589;BME280;11972;48.078;11.876;2023-03-23T15:23:43;94868.53;;;18.06;92.92
23589;BME280;11972;48.078;11.876;2023-03-23T15:27:49;94866.19;;;17.93;95.35
23589;BME280;11972;48.078;11.876;2023-03-23T15:31:53;94868.53;;;17.90;96.87
23589;BME280;11972;48.078;11.876;2023-03-23T15:35:56;94875.97;;;17.88;97.52
23589;BME280;11972;48.078;11.876;2023-03-23T15:39:58;94868.44;;;17.84;99.26
23589;BME280;11972;48.078;11.876;2023-03-23T15:44:18;94872.59;;;17.75;99.66
23589;BME280;11972;48.078;11.876;2023-03-23T15:48:20;94877.22;;;17.68;100.00
23589;BME280;11972;48.078;11.876;2023-03-23T15:52:20;94873.81;;;17.56;100.00
23589;BME280;11972;48.078;11.876;2023-03-23T15:56:21;94871.56;;;17.48;100.00
23589;BME280;11972;48.078;11.876;2023-03-23T16:00:26;94873.00;;;17.39;100.00
23589;BME280;11972;48.078;11.876;2023-03-23T16:04:27;94884.06;;;17.30;100.00
23589;BME280;11972;48.078;11.876;2023-03-23T16:08:28;94871.34;;;17.21;100.00
23589;BME280;11972;48.078;11.876;2023-03-23T16:12:29;94882.16;;;17.14;100.00
23589;BME280;11972;48.078;11.876;2023-03-23T16:16:33;94877.47;;;17.04;100.00
23589;BME280;11972;48.078;11.876;2023-03-23T16:20:35;94876.91;;;16.91;100.00
23589;BME280;11972;48.078;11.876;2023-03-23T16:24:35;94880.91;;;16.76;100.00
23589;BME280;11972;48.078;11.876;2023-03-23T16:28:36;94876.63;;;16.63;100.00
23589;BME280;11972;48.078;11.876;2023-03-23T16:32:36;94878.97;;;16.48;100.00
23589;BME280;11972;48.078;11.876;2023-03-23T16:36:36;94885.81;;;16.32;100.00
23589;BME280;11972;48.078;11.876;2023-03-23T16:40:37;94892.06;;;15.79;100.00
23589;BME280;11972;48.078;11.876;2023-03-23T16:44:37;94891.84;;;15.09;100.00
23589;BME280;11972;48.078;11.876;2023-03-23T16:48:38;94887.94;;;14.93;100.00
23589;BME280;11972;48.078;11.876;2023-03-23T16:52:41;94884.66;;;15.09;100.00
23589;BME280;11972;48.078;11.876;2023-03-23T16:56:42;94882.78;;;14.98;100.00
23589;BME280;11972;48.078;11.876;2023-03-23T17:00:48;94888.50;;;14.83;100.00
23589;BME280;11972;48.078;11.876;2023-03-23T17:04:48;94885.72;;;14.78;100.00
23589;BME280;11972;48.078;11.876;2023-03-23T17:08:49;94887.00;;;14.87;100.00
23589;BME280;11972;48.078;11.876;2023-03-23T17:12:49;94891.97;;;14.84;100.00
23589;BME280;11972;48.078;11.876;2023-03-23T17:16:50;94881.88;;;14.74;100.00
23589;BME280;11972;48.078;11.876;2023-03-23T17:20:53;94898.56;;;14.63;100.00
23589;BME280;11972;48.078;11.876;2023-03-23T17:24:54;94904.41;;;14.53;100.00
23589;BME280;11972;48.078;11.876;2023-03-23T17:28:56;94899.13;;;14.47;100.00
23589;BME280;11972;48.078;11.876;2023-03-23T17:32:56;94893.44;;;14.43;100.00
23589;BME280;11972;48.078;11.876;2023-03-23T17:36:57;94894.09;;;14.38;100.00
23589;BME280;11972;48.078;11.876;2023-03-23T17:41:00;94893.94;;;14.33;100.00
23589;BME280;11972;48.078;11.876;2023-03-23T17:45:01;94894.38;;;14.30;100.00
23589;BME280;11972;48.078;11.876;2023-03-23T17:49:02;94891.34;;;14.27;100.00
23589;BME280;11972;48.078;11.876;2023-03-23T17:53:03;94885.91;;;14.22;100.00
23589;BME280;11972;48.078;11.876;2023-03-23T17:57:03;94881.81;;;14.19;100.00
23589;BME280;11972;48.078;11.876;2023-03-23T18:01:04;94892.91;;;14.16;100.00
23589;BME280;11972;48.078;11.876;2023-03-23T18:05:05;94892.72;;;14.11;100.00
23589;BME280;11972;48.078;11.876;2023-03-23T18:09:07;94896.66;;;14.08;100.00
23589;BME280;11972;48.078;11.876;2023-03-23T18:13:08;94907.31;;;14.02;100.00
23589;BME280;11972;48.078;11.876;2023-03-23T18:17:08;94908.22;;;13.96;100.00
23589;BME280;11972;48.078;11.876;2023-03-23T18:21:09;94908.50;;;13.87;100.00
23589;BME280;11972;48.078;11.876;2023-03-23T18:25:09;94908.31;;;13.82;100.00
23589;BME280;11972;48.078;11.876;2023-03-23T18:29:10;94915.69;;;13.80;100.00
23589;BME280;11972;48.078;11.876;2023-03-23T18:33:10;94923.03;;;13.78;100.00
23589;BME280;11972;48.078;11.876;2023-03-23T18:37:11;94932.47;;;13.74;100.00
23589;BME280;11972;48.078;11.876;2023-03-23T18:41:12;94932.31;;;13.69;100.00
23589;BME280;11972;48.078;11.876;2023-03-23T18:45:13;94928.91;;;13.62;100.00
23589;BME280;11972;48.078;11.876;2023-03-23T18:49:13;94933.63;;;13.53;100.00
23589;BME280;11972;48.078;11.876;2023-03-23T18:53:14;94942.25;;;13.49;100.00
23589;BME280;11972;48.078;11.876;2023-03-23T18:57:15;94939.41;;;13.44;100.00
23589;BME280;11972;48.078;11.876;2023-03-23T19:01:17;94932.69;;;13.41;100.00
23589;BME280;11972;48.078;11.876;2023-03-23T19:05:17;94938.44;;;13.38;100.00
23589;BME280;11972;48.078;11.876;2023-03-23T19:09:17;94942.56;;;13.34;100.00
23589;BME280;11972;48.078;11.876;2023-03-23T19:13:18;94940.09;;;13.32;100.00
23589;BME280;11972;48.078;11.876;2023-03-23T19:17:19;94934.78;;;13.32;100.00
23589;BME280;11972;48.078;11.876;2023-03-23T19:21:19;94936.84;;;13.30;100.00
23589;BME280;11972;48.078;11.876;2023-03-23T19:25:20;94933.81;;;13.27;100.00
23589;BME280;11972;48.078;11.876;2023-03-23T19:29:20;94943.22;;;13.23;100.00
23589;BME280;11972;48.078;11.876;2023-03-23T19:33:22;94937.09;;;13.15;100.00
23589;BME280;11972;48.078;11.876;2023-03-23T19:37:22;94937.75;;;13.11;100.00
23589;BME280;11972;48.078;11.876;2023-03-23T19:41:23;94943.91;;;13.05;100.00
23589;BME280;11972;48.078;11.876;2023-03-23T19:45:24;94948.81;;;13.01;100.00
23589;BME280;11972;48.078;11.876;2023-03-23T19:49:25;94951.06;;;12.98;100.00
23589;BME280;11972;48.078;11.876;2023-03-23T19:53:25;94945.38;;;12.94;100.00
23589;BME280;11972;48.078;11.876;2023-03-23T19:57:26;94956.19;;;12.93;100.00
23589;BME280;11972;48.078;11.876;2023-03-23T20:01:26;94949.63;;;12.95;100.00
23589;BME280;11972;48.078;11.876;2023-03-23T20:05:28;94937.00;;;12.97;100.00
23589;BME280;11972;48.078;11.876;2023-03-23T20:09:28;94936.19;;;12.97;100.00
23589;BME280;11972;48.078;11.876;2023-03-23T20:13:29;94929.88;;;12.91;100.00
23589;BME280;11972;48.078;11.876;2023-03-23T20:17:29;94935.00;;;12.86;100.00
23589;BME280;11972;48.078;11.876;2023-03-23T20:21:30;94942.38;;;12.77;100.00
23589;BME280;11972;48.078;11.876;2023-03-23T20:25:30;94934.66;;;12.69;100.00
23589;BME280;11972;48.078;11.876;2023-03-23T20:29:31;94938.34;;;12.68;100.00
23589;BME280;11972;48.078;11.876;2023-03-23T20:33:33;94948.53;;;12.64;100.00
23589;BME280;11972;48.078;11.876;2023-03-23T20:37:36;94953.66;;;12.59;100.00
23589;BME280;11972;48.078;11.876;2023-03-23T20:41:40;94952.22;;;12.57;100.00
23589;BME280;11972;48.078;11.876;2023-03-23T20:45:42;94940.22;;;12.54;100.00
23589;BME280;11972;48.078;11.876;2023-03-23T20:49:42;94944.09;;;12.52;100.00
23589;BME280;11972;48.078;11.876;2023-03-23T20:53:43;94945.31;;;12.49;100.00
23589;BME280;11972;48.078;11.876;2023-03-23T20:57:44;94941.63;;;12.50;100.00
23589;BME280;11972;48.078;11.876;2023-03-23T21:01:45;94955.09;;;12.49;100.00
23589;BME280;11972;48.078;11.876;2023-03-23T21:05:46;94944.50;;;12.49;100.00
23589;BME280;11972;48.078;11.876;2023-03-23T21:09:46;94943.47;;;12.50;100.00
23589;BME280;11972;48.078;11.876;2023-03-23T21:13:47;94949.81;;;12.49;100.00
23589;BME280;11972;48.078;11.876;2023-03-23T21:17:48;94946.34;;;12.48;100.00
23589;BME280;11972;48.078;11.876;2023-03-23T21:21:49;94949.81;;;12.49;100.00
23589;BME280;11972;48.078;11.876;2023-03-23T21:25:49;94946.34;;;12.48;100.00
23589;BME280;11972;48.078;11.876;2023-03-23T21:29:50;94938.81;;;12.45;100.00
23589;BME280;11972;48.078;11.876;2023-03-23T21:33:50;94932.69;;;12.45;100.00
23589;BME280;11972;48.078;11.876;2023-03-23T21:37:50;94934.31;;;12.46;100.00
23589;BME280;11972;48.078;11.876;2023-03-23T21:41:52;94929.03;;;12.46;100.00
23589;BME280;11972;48.078;11.876;2023-03-23T21:45:55;94931.72;;;12.39;100.00
23589;BME280;11972;48.078;11.876;2023-03-23T21:49:56;94933.97;;;12.35;100.00
23589;BME280;11972;48.078;11.876;2023-03-23T21:53:57;94921.34;;;12.31;100.00
23589;BME280;11972;48.078;11.876;2023-03-23T21:57:57;94920.31;;;12.25;100.00
23589;BME280;11972;48.078;11.876;2023-03-23T22:02:01;94915.25;;;12.24;100.00
23589;BME280;11972;48.078;11.876;2023-03-23T22:06:17;94918.50;;;12.19;100.00
23589;BME280;11972;48.078;11.876;2023-03-23T22:10:19;94908.72;;;12.13;100.00
23589;BME280;11972;48.078;11.876;2023-03-23T22:14:20;94900.00;;;12.06;100.00
23589;BME280;11972;48.078;11.876;2023-03-23T22:18:20;94898.78;;;11.95;100.00
23589;BME280;11972;48.078;11.876;2023-03-23T22:22:20;94898.19;;;11.86;100.00
23589;BME280;11972;48.078;11.876;2023-03-23T22:26:25;94893.66;;;11.80;100.00
23589;BME280;11972;48.078;11.876;2023-03-23T22:30:26;94883.13;;;11.74;100.00
23589;BME280;11972;48.078;11.876;2023-03-23T22:34:30;94874.97;;;11.68;100.00